createdAt,value
2019-03-08T00:01:19.064Z,5.70
2019-03-08T00:03:47.121Z,4.13
2019-03-08T00:06:14.475Z,4.33
2019-03-08T00:08:43.043Z,4.40
2019-03-08T00:11:12.693Z,4.73
2019-03-08T00:13:41.790Z,5.37
2019-03-08T00:16:09.242Z,4.27
2019-03-08T00:18:39.532Z,3.10
2019-03-08T00:21:07.828Z,3.63
2019-03-08T00:23:37.912Z,2.57
2019-03-08T00:26:06.333Z,3.17
2019-03-08T00:28:34.142Z,2.73
2019-03-08T00:31:01.686Z,2.97
2019-03-08T00:33:29.001Z,2.33
2019-03-08T00:35:56.463Z,2.17
2019-03-08T00:38:24.340Z,3.43
2019-03-08T00:40:51.647Z,3.77
2019-03-08T00:43:19.036Z,3.73
2019-03-08T00:45:46.422Z,1.80
2019-03-08T00:48:13.739Z,1.93
2019-03-08T00:50:41.138Z,2.77
2019-03-08T00:53:08.569Z,2.33
2019-03-08T00:55:36.252Z,2.83
2019-03-08T00:58:03.727Z,2.83
2019-03-08T01:00:31.220Z,3.53
2019-03-08T01:03:00.053Z,2.33
2019-03-08T01:05:27.380Z,3.83
2019-03-08T01:07:54.915Z,2.03
2019-03-08T01:10:25.211Z,4.20
2019-03-08T01:12:52.568Z,2.23
2019-03-08T01:15:19.953Z,1.83
2019-03-08T01:17:47.333Z,1.97
2019-03-08T01:20:16.288Z,2.50
2019-03-08T01:22:43.819Z,1.50
2019-03-08T01:25:11.474Z,2.40
2019-03-08T01:27:40.577Z,4.00
2019-03-08T01:30:09.663Z,2.47
2019-03-08T01:32:37.087Z,2.60
2019-03-08T01:35:04.677Z,2.20
2019-03-08T01:37:32.017Z,1.20
2019-03-08T01:39:59.395Z,1.57
2019-03-08T01:42:26.989Z,3.23
2019-03-08T01:44:54.447Z,1.17
2019-03-08T01:47:21.816Z,1.83
2019-03-08T01:49:49.309Z,1.10
2019-03-08T01:52:16.726Z,1.33
2019-03-08T01:54:44.199Z,1.30
2019-03-08T01:57:11.510Z,2.50
2019-03-08T01:59:38.875Z,2.57
2019-03-08T02:02:06.341Z,2.03
2019-03-08T02:04:33.779Z,1.13
2019-03-08T02:07:01.207Z,1.40
2019-03-08T02:09:30.225Z,2.37
2019-03-08T02:11:57.559Z,2.47
2019-03-08T02:14:25.175Z,2.20
2019-03-08T02:16:52.578Z,2.47
2019-03-08T02:19:20.065Z,1.53
2019-03-08T02:21:47.489Z,3.07
2019-03-08T02:24:14.807Z,4.17
2019-03-08T02:26:42.158Z,2.47
2019-03-08T02:29:09.595Z,2.63
2019-03-08T02:31:37.006Z,1.80
2019-03-08T02:34:04.413Z,1.90
2019-03-08T02:36:31.773Z,1.87
2019-03-08T02:38:59.113Z,1.90
2019-03-08T02:41:26.541Z,1.67
2019-03-08T02:43:53.892Z,1.20
2019-03-08T02:46:21.230Z,1.20
2019-03-08T02:48:48.665Z,1.30
2019-03-08T02:51:15.979Z,1.50
2019-03-08T02:53:43.492Z,2.60
2019-03-08T02:56:10.817Z,2.00
2019-03-08T02:58:38.120Z,1.27
2019-03-08T03:01:05.881Z,2.33
2019-03-08T03:03:33.343Z,1.30
2019-03-08T03:06:00.673Z,2.87
2019-03-08T03:08:28.089Z,2.33
2019-03-08T03:10:55.395Z,1.33
2019-03-08T03:13:23.170Z,1.40
2019-03-08T03:15:50.569Z,3.73
2019-03-08T03:18:18.404Z,2.50
2019-03-08T03:20:53.247Z,2.37
2019-03-08T03:23:20.571Z,1.97
2019-03-08T03:25:48.067Z,1.77
2019-03-08T03:28:15.385Z,1.70
2019-03-08T03:30:42.814Z,2.43
2019-03-08T03:33:10.626Z,2.57
2019-03-08T03:35:37.973Z,1.93
2019-03-08T03:38:05.389Z,1.93
2019-03-08T03:40:32.851Z,4.80
2019-03-08T03:43:00.179Z,1.73
2019-03-08T03:45:27.591Z,2.77
2019-03-08T03:47:55.115Z,1.90
2019-03-08T03:50:22.783Z,2.50
2019-03-08T03:52:50.252Z,2.80
2019-03-08T03:55:17.968Z,1.93
2019-03-08T03:57:45.302Z,4.43
2019-03-08T04:00:14.003Z,2.07
2019-03-08T04:02:41.390Z,1.47
2019-03-08T04:05:09.139Z,1.67
2019-03-08T04:07:36.463Z,1.47
2019-03-08T04:10:04.680Z,2.23
2019-03-08T04:12:32.192Z,3.00
2019-03-08T04:14:59.599Z,3.03
2019-03-08T04:17:27.073Z,3.10
2019-03-08T04:19:54.400Z,2.53
2019-03-08T04:22:21.844Z,2.90
2019-03-08T04:24:49.224Z,3.13
2019-03-08T04:27:16.688Z,4.03
2019-03-08T04:29:44.006Z,3.97
2019-03-08T04:32:11.494Z,4.30
2019-03-08T04:34:38.872Z,5.73
2019-03-08T04:37:06.259Z,5.20
2019-03-08T04:39:33.679Z,6.43
2019-03-08T04:42:01.002Z,9.37
2019-03-08T04:44:28.510Z,10.33
2019-03-08T04:46:55.957Z,8.77
2019-03-08T04:49:23.325Z,10.00
2019-03-08T04:51:50.714Z,10.43
2019-03-08T04:54:18.633Z,10.57
2019-03-08T04:56:46.005Z,9.20
2019-03-08T04:59:13.360Z,7.23
2019-03-08T05:01:40.694Z,6.47
2019-03-08T05:04:08.212Z,8.27
2019-03-08T05:06:35.521Z,8.23
2019-03-08T05:09:03.360Z,6.70
2019-03-08T05:11:30.977Z,6.67
2019-03-08T05:13:58.350Z,8.73
2019-03-08T05:16:25.696Z,10.57
2019-03-08T05:18:53.114Z,10.23
2019-03-08T05:21:20.538Z,7.93
2019-03-08T05:23:47.954Z,9.73
2019-03-08T05:26:15.349Z,11.60
2019-03-08T05:28:42.702Z,10.73
2019-03-08T05:31:10.045Z,6.47
2019-03-08T05:33:37.367Z,11.60
2019-03-08T05:36:04.888Z,11.20
2019-03-08T05:38:36.833Z,8.23
2019-03-08T05:41:04.246Z,11.67
2019-03-08T05:43:31.908Z,15.90
2019-03-08T05:45:59.288Z,12.17
2019-03-08T05:48:26.754Z,10.13
2019-03-08T05:50:54.142Z,12.13
2019-03-08T05:53:21.611Z,11.47
2019-03-08T05:55:48.951Z,7.60
2019-03-08T05:58:16.418Z,9.03
2019-03-08T06:00:43.866Z,8.83
2019-03-08T06:03:11.308Z,7.47
2019-03-08T06:05:38.754Z,6.67
2019-03-08T06:08:06.075Z,8.57
2019-03-08T06:10:34.073Z,7.97
2019-03-08T06:13:02.156Z,6.63
2019-03-08T06:15:29.508Z,9.57
2019-03-08T06:17:57.276Z,6.30
2019-03-08T06:20:25.018Z,9.03
2019-03-08T06:22:52.383Z,10.97
2019-03-08T06:25:19.721Z,10.70
2019-03-08T06:27:47.791Z,11.37
2019-03-08T06:30:15.158Z,10.67
2019-03-08T06:32:42.560Z,11.07
2019-03-08T06:35:10.596Z,11.77
2019-03-08T06:37:38.129Z,9.87
2019-03-08T06:40:06.999Z,9.70
2019-03-08T06:42:34.338Z,9.73
2019-03-08T06:45:01.700Z,10.43
2019-03-08T06:47:29.110Z,9.23
2019-03-08T06:49:56.506Z,9.63
2019-03-08T06:52:23.863Z,8.67
2019-03-08T06:54:51.191Z,11.73
2019-03-08T06:57:20.416Z,9.80
2019-03-08T06:59:49.281Z,10.37
2019-03-08T07:02:17.920Z,9.23
2019-03-08T07:04:45.301Z,9.97
2019-03-08T07:07:12.807Z,10.57
2019-03-08T07:09:40.348Z,9.00
2019-03-08T07:12:09.297Z,14.63
2019-03-08T07:14:36.675Z,15.23
2019-03-08T07:17:04.029Z,14.70
2019-03-08T07:19:40.364Z,14.10
2019-03-08T07:22:02.258Z,13.23
2019-03-08T07:24:43.331Z,9.50
2019-03-08T07:27:24.069Z,8.47
2019-03-08T07:29:53.484Z,5.77
2019-03-08T07:32:31.735Z,5.67
2019-03-08T07:35:00.718Z,6.17
2019-03-08T07:37:35.657Z,4.97
2019-03-08T07:40:05.200Z,5.30
2019-03-08T07:42:40.289Z,6.20
2019-03-08T07:45:26.765Z,4.50
2019-03-08T07:47:56.055Z,5.80
2019-03-08T07:50:28.009Z,6.37
2019-03-08T07:53:13.201Z,7.03
2019-03-08T07:55:42.295Z,8.17
2019-03-08T07:58:16.951Z,4.70
2019-03-08T08:00:57.860Z,5.27
2019-03-08T08:03:26.845Z,5.13
2019-03-08T08:06:04.892Z,5.50
2019-03-08T08:08:51.953Z,5.37
2019-03-08T08:11:19.617Z,5.13
2019-03-08T08:13:48.654Z,4.63
2019-03-08T08:16:41.552Z,5.27
2019-03-08T08:19:10.700Z,5.77
2019-03-08T08:21:44.058Z,4.03
2019-03-08T08:24:16.423Z,2.73
2019-03-08T08:27:03.895Z,3.80
2019-03-08T08:32:29.083Z,8.23
2019-03-08T08:34:58.084Z,7.53
2019-03-08T08:37:29.727Z,2.57
2019-03-08T08:39:58.750Z,3.83
2019-03-08T08:42:30.519Z,4.23
2019-03-08T08:45:02.451Z,4.83
2019-03-08T08:47:47.595Z,5.53
2019-03-08T08:50:23.233Z,2.80
2019-03-08T08:53:04.049Z,3.47
2019-03-08T08:55:43.611Z,2.80
2019-03-08T08:58:15.545Z,2.50
2019-03-08T09:00:46.199Z,1.87
2019-03-08T09:03:18.442Z,1.83
2019-03-08T09:05:53.248Z,1.97
2019-03-08T09:08:26.878Z,1.70
2019-03-08T09:11:11.230Z,1.30
2019-03-08T09:13:59.141Z,2.40
2019-03-08T09:16:41.565Z,1.30
2019-03-08T09:19:11.193Z,1.97
2019-03-08T09:21:42.962Z,1.70
2019-03-08T09:24:18.023Z,4.47
2019-03-08T09:27:03.697Z,3.00
2019-03-08T09:29:41.237Z,1.43
2019-03-08T09:32:16.951Z,1.20
2019-03-08T09:34:46.029Z,1.70
2019-03-08T09:37:31.577Z,1.60
2019-03-08T09:40:12.355Z,3.50
2019-03-08T09:42:50.670Z,7.03
2019-03-08T09:45:16.931Z,1.00
2019-03-08T09:47:52.124Z,1.47
2019-03-08T09:50:27.493Z,1.33
2019-03-08T09:52:57.134Z,1.10
2019-03-08T09:55:29.089Z,0.97
2019-03-08T09:58:06.726Z,3.17
2019-03-08T10:00:36.770Z,3.30
2019-03-08T10:03:22.257Z,2.33
2019-03-08T10:05:54.245Z,2.07
2019-03-08T10:08:26.619Z,1.33
2019-03-08T10:11:04.749Z,2.50
2019-03-08T10:13:52.710Z,3.20
2019-03-08T10:16:27.523Z,1.80
2019-03-08T10:19:02.415Z,1.40
2019-03-08T10:21:34.501Z,2.27
2019-03-08T10:24:03.613Z,1.37
2019-03-08T10:26:41.677Z,1.53
2019-03-08T10:29:25.586Z,1.47
2019-03-08T10:32:12.894Z,1.60
2019-03-08T10:34:47.798Z,2.03
2019-03-08T10:37:19.663Z,0.67
2019-03-08T10:40:07.023Z,2.50
2019-03-08T10:42:36.053Z,2.10
2019-03-08T10:45:05.113Z,2.30
2019-03-08T10:47:39.680Z,1.37
2019-03-08T10:50:15.736Z,2.70
2019-03-08T10:52:44.848Z,2.50
2019-03-08T10:55:28.934Z,1.10
2019-03-08T10:58:10.025Z,1.57
2019-03-08T11:00:39.168Z,0.63
2019-03-08T11:03:16.955Z,1.60
2019-03-08T11:05:48.725Z,1.63
2019-03-08T11:08:17.680Z,1.70
2019-03-08T11:11:06.465Z,3.53
2019-03-08T11:13:44.438Z,1.10
2019-03-08T11:16:30.316Z,1.83
2019-03-08T11:19:17.668Z,1.83
2019-03-08T11:22:04.714Z,2.27
2019-03-08T11:24:48.793Z,2.17
2019-03-08T11:27:17.785Z,2.43
2019-03-08T11:30:04.952Z,6.47
2019-03-08T11:32:34.018Z,3.23
2019-03-08T11:35:05.954Z,2.43
2019-03-08T11:37:43.978Z,1.13
2019-03-08T11:40:22.430Z,1.90
2019-03-08T11:43:03.881Z,2.90
2019-03-08T11:45:35.766Z,5.40
2019-03-08T11:48:07.494Z,1.43
2019-03-08T11:50:53.090Z,1.87
2019-03-08T11:53:28.200Z,1.43
2019-03-08T11:55:59.709Z,2.77
2019-03-08T11:58:45.938Z,1.93
2019-03-08T12:01:30.938Z,1.07
2019-03-08T12:04:00.040Z,1.47
2019-03-08T12:06:31.937Z,2.57
2019-03-08T12:09:04.059Z,5.57
2019-03-08T12:11:42.053Z,2.07
2019-03-08T12:14:11.085Z,1.17
2019-03-08T12:16:52.170Z,3.40
2019-03-08T12:19:26.796Z,1.77
2019-03-08T12:22:05.102Z,3.77
2019-03-08T12:24:34.186Z,4.03
2019-03-08T12:27:05.723Z,2.10
2019-03-08T12:29:34.745Z,4.07
2019-03-08T12:32:06.702Z,1.90
2019-03-08T12:34:41.556Z,3.93
2019-03-08T12:37:10.719Z,1.20
2019-03-08T12:39:48.666Z,2.80
2019-03-08T12:42:27.452Z,3.67
2019-03-08T12:45:02.174Z,2.10
2019-03-08T12:47:36.773Z,1.40
2019-03-08T12:50:07.100Z,2.17
2019-03-08T12:52:52.571Z,3.00
2019-03-08T12:55:37.959Z,1.70
2019-03-08T12:58:10.223Z,1.30
2019-03-08T13:00:39.250Z,0.93
2019-03-08T13:03:16.917Z,0.90
2019-03-08T13:05:46.026Z,1.43
2019-03-08T13:08:18.267Z,3.10
2019-03-08T13:10:45.728Z,1.93
2019-03-08T13:13:13.143Z,3.37
2019-03-08T13:15:41.705Z,1.00
2019-03-08T13:18:11.009Z,1.33
2019-03-08T13:20:38.325Z,1.23
2019-03-08T13:28:49.944Z,1.40
2019-03-08T13:31:17.470Z,3.27
2019-03-08T13:33:44.860Z,1.90
2019-03-08T13:36:14.334Z,3.53
2019-03-08T13:38:42.231Z,1.60
2019-03-08T13:41:09.625Z,3.20
2019-03-08T13:43:37.518Z,0.80
2019-03-08T13:46:05.049Z,3.90
2019-03-08T13:48:32.635Z,2.80
2019-03-08T13:51:00.025Z,2.43
2019-03-08T13:53:27.628Z,3.70
2019-03-08T13:55:54.937Z,4.70
2019-03-08T13:58:22.337Z,4.27
2019-03-08T14:00:51.218Z,2.60
2019-03-08T14:03:18.583Z,6.00
2019-03-08T14:05:46.123Z,3.70
2019-03-08T14:08:13.913Z,1.80
2019-03-08T14:10:41.366Z,2.90
2019-03-08T14:13:08.721Z,1.90
2019-03-08T14:15:36.219Z,4.47
2019-03-08T14:18:03.647Z,2.10
2019-03-08T14:20:32.051Z,2.67
2019-03-08T14:23:01.977Z,3.60
2019-03-08T14:25:30.951Z,3.13
2019-03-08T14:27:59.416Z,3.80
2019-03-08T14:30:32.160Z,3.77
2019-03-08T14:33:01.642Z,3.90
2019-03-08T14:35:29.735Z,3.53
2019-03-08T14:37:57.597Z,2.37
2019-03-08T14:40:44.819Z,2.87
2019-03-08T14:43:17.765Z,3.93
2019-03-08T14:45:52.946Z,3.43
2019-03-08T14:48:22.705Z,5.50
2019-03-08T14:50:51.650Z,6.27
2019-03-08T14:53:19.179Z,8.03
2019-03-08T14:55:47.725Z,5.33
2019-03-08T14:58:15.261Z,4.33
2019-03-08T15:00:44.192Z,7.00
2019-03-08T15:03:11.564Z,3.20
2019-03-08T15:05:39.099Z,3.87
2019-03-08T15:08:06.518Z,2.87
2019-03-08T15:10:39.399Z,2.83
2019-03-08T15:13:02.915Z,4.27
2019-03-08T15:15:30.408Z,3.77
2019-03-08T15:17:58.952Z,2.90
2019-03-08T15:20:26.370Z,3.53
2019-03-08T15:22:53.897Z,1.53
2019-03-08T15:25:21.315Z,2.07
2019-03-08T15:27:48.856Z,5.00
2019-03-08T15:30:17.910Z,4.17
2019-03-08T15:32:45.581Z,1.80
2019-03-08T15:35:14.838Z,2.03
2019-03-08T15:37:44.499Z,1.93
2019-03-08T15:40:12.914Z,3.13
2019-03-08T15:42:41.863Z,2.10
2019-03-08T15:45:10.009Z,2.00
2019-03-08T15:47:38.715Z,2.47
2019-03-08T15:50:09.837Z,3.40
2019-03-08T15:52:37.056Z,2.77
2019-03-08T15:55:05.123Z,2.13
2019-03-08T15:57:32.540Z,3.77
2019-03-08T16:00:00.021Z,4.70
2019-03-08T16:02:27.579Z,4.03
2019-03-08T16:04:55.096Z,4.63
2019-03-08T16:07:27.218Z,5.07
2019-03-08T16:09:55.067Z,8.90
2019-03-08T16:12:22.462Z,4.70
2019-03-08T16:14:52.156Z,5.93
2019-03-08T16:17:19.580Z,5.13
2019-03-08T16:19:49.918Z,7.10
2019-03-08T16:22:18.029Z,7.13
2019-03-08T16:24:46.452Z,8.07
2019-03-08T16:27:15.222Z,6.07
2019-03-08T16:29:47.672Z,7.23
2019-03-08T16:32:16.712Z,6.97
2019-03-08T16:34:44.221Z,10.13
2019-03-08T16:37:16.021Z,12.97
2019-03-08T16:39:50.957Z,11.77
2019-03-08T16:42:22.708Z,12.87
2019-03-08T16:44:57.723Z,11.80
2019-03-08T16:47:26.707Z,10.87
2019-03-08T16:50:01.635Z,12.43
2019-03-08T16:52:36.132Z,18.57
2019-03-08T16:55:16.799Z,13.83
2019-03-08T16:57:48.654Z,14.67
2019-03-08T17:00:17.991Z,15.07
2019-03-08T17:02:49.826Z,18.90
2019-03-08T17:05:21.668Z,9.10
2019-03-08T17:07:50.590Z,12.03
2019-03-08T17:10:22.456Z,12.43
2019-03-08T17:12:54.320Z,16.43
2019-03-08T17:15:40.209Z,12.67
2019-03-08T17:18:11.859Z,11.20
2019-03-08T17:20:41.116Z,12.93
2019-03-08T17:23:26.615Z,12.13
2019-03-08T17:25:58.287Z,18.47
2019-03-08T17:28:30.340Z,15.77
2019-03-08T17:30:59.540Z,15.93
2019-03-08T17:33:44.750Z,18.07
2019-03-08T17:36:19.836Z,12.97
2019-03-08T17:39:07.644Z,18.63
2019-03-08T17:41:42.176Z,11.87
2019-03-08T17:44:27.736Z,13.17
2019-03-08T17:47:02.074Z,13.90
2019-03-08T17:49:34.351Z,15.97
2019-03-08T17:52:03.446Z,21.47
2019-03-08T17:54:37.899Z,23.27
2019-03-08T17:57:06.923Z,27.50
2019-03-08T17:59:38.695Z,31.60
2019-03-08T18:02:16.453Z,27.93
2019-03-08T18:05:03.733Z,34.50
2019-03-08T18:07:41.612Z,31.63
2019-03-08T18:10:13.353Z,26.07
2019-03-08T18:12:42.412Z,29.43
2019-03-08T18:15:20.346Z,26.27
2019-03-08T18:17:55.645Z,25.63
2019-03-08T18:20:36.969Z,27.90
2019-03-08T18:23:12.229Z,28.80
2019-03-08T18:25:41.262Z,25.07
2019-03-08T18:28:25.057Z,31.93
2019-03-08T18:30:54.176Z,27.47
2019-03-08T18:33:38.656Z,29.43
2019-03-08T18:36:11.305Z,28.27
2019-03-08T18:38:52.661Z,36.93
2019-03-08T18:41:36.515Z,36.93
2019-03-08T18:44:08.722Z,36.00
2019-03-08T18:46:45.320Z,29.70
2019-03-08T18:49:26.352Z,33.10
2019-03-08T18:52:07.365Z,35.17
2019-03-08T18:54:51.852Z,32.83
2019-03-08T18:57:38.824Z,33.50
2019-03-08T19:00:12.111Z,28.50
2019-03-08T19:02:41.219Z,37.27
2019-03-08T19:05:27.930Z,30.97
2019-03-08T19:07:59.739Z,34.60
2019-03-08T19:10:40.156Z,36.23
2019-03-08T19:13:27.522Z,37.77
2019-03-08T19:15:59.075Z,39.70
2019-03-08T19:18:35.625Z,37.13
2019-03-08T19:21:22.504Z,37.73
2019-03-08T19:24:02.763Z,43.87
2019-03-08T19:26:38.697Z,39.53
2019-03-08T19:29:22.272Z,43.13
2019-03-08T19:31:57.335Z,38.00
2019-03-08T19:34:32.170Z,44.30
2019-03-08T19:37:13.314Z,39.67
2019-03-08T19:40:01.789Z,42.90
2019-03-08T19:42:30.938Z,42.53
2019-03-08T19:45:08.896Z,37.13
2019-03-08T19:47:48.082Z,44.53
2019-03-08T19:50:21.355Z,37.47
2019-03-08T19:53:06.969Z,36.07
2019-03-08T19:55:36.141Z,38.60
2019-03-08T19:58:13.952Z,39.57
2019-03-08T20:00:43.104Z,46.13
2019-03-08T20:03:15.156Z,47.43
2019-03-08T20:06:04.227Z,48.23
2019-03-08T20:08:46.468Z,30.80
2019-03-08T20:11:35.738Z,33.17
2019-03-08T20:14:19.500Z,25.77
2019-03-08T20:17:05.395Z,20.93
2019-03-08T20:19:40.600Z,16.50
2019-03-08T20:22:21.400Z,12.63
2019-03-08T20:25:08.874Z,9.20
2019-03-08T20:27:46.931Z,8.53
2019-03-08T20:30:22.056Z,9.77
2019-03-08T20:33:07.787Z,8.80
2019-03-08T20:35:54.937Z,10.77
2019-03-08T20:38:35.896Z,8.90
2019-03-08T20:41:10.976Z,15.23
2019-03-08T20:43:40.050Z,12.63
2019-03-08T20:46:09.085Z,13.17
2019-03-08T20:48:36.572Z,13.27
2019-03-08T20:51:04.090Z,17.93
2019-03-08T20:53:33.134Z,15.43
2019-03-08T20:56:00.684Z,18.47
2019-03-08T20:58:28.149Z,14.50
2019-03-08T21:00:55.575Z,19.73
2019-03-08T21:03:23.010Z,22.10
2019-03-08T21:05:50.863Z,20.83
2019-03-08T21:08:18.477Z,19.00
2019-03-08T21:10:48.794Z,24.20
2019-03-08T21:13:17.902Z,17.97
2019-03-08T21:15:45.352Z,14.67
2019-03-08T21:18:12.819Z,18.70
2019-03-08T21:20:40.655Z,20.77
2019-03-08T21:23:08.166Z,17.73
2019-03-08T21:25:35.624Z,15.37
2019-03-08T21:28:03.124Z,15.27
2019-03-08T21:30:30.515Z,18.10
2019-03-08T21:32:59.659Z,16.30
2019-03-08T21:35:41.141Z,19.33
2019-03-08T21:38:08.667Z,19.07
2019-03-08T21:40:36.130Z,16.83
2019-03-08T21:43:03.644Z,18.10
2019-03-08T21:45:31.103Z,20.43
2019-03-08T21:48:01.737Z,17.57
2019-03-08T21:50:30.728Z,16.93
2019-03-08T21:52:58.187Z,23.93
2019-03-08T21:55:25.613Z,33.63
2019-03-08T21:57:53.054Z,35.70
2019-03-08T22:00:22.041Z,46.07
2019-03-08T22:02:49.455Z,49.67
2019-03-08T22:05:18.584Z,56.90
2019-03-08T22:07:46.059Z,49.63
2019-03-08T22:10:20.694Z,41.30
2019-03-08T22:12:48.120Z,28.97
2019-03-08T22:15:15.544Z,24.63
2019-03-08T22:17:43.277Z,23.03
2019-03-08T22:20:10.742Z,14.03
2019-03-08T22:22:38.159Z,15.70
2019-03-08T22:25:07.212Z,17.63
2019-03-08T22:27:34.699Z,18.13
2019-03-08T22:30:02.122Z,16.60
2019-03-08T22:32:29.642Z,13.90
2019-03-08T22:34:57.081Z,14.93
2019-03-08T22:37:24.588Z,12.80
2019-03-08T22:39:52.052Z,15.50
2019-03-08T22:42:19.549Z,11.93
2019-03-08T22:44:46.976Z,16.30
2019-03-08T22:47:14.546Z,13.90
2019-03-08T22:49:42.062Z,13.83
2019-03-08T22:52:09.527Z,12.57
2019-03-08T22:54:37.019Z,16.27
2019-03-08T22:57:04.543Z,17.33
2019-03-08T22:59:32.033Z,17.03
2019-03-08T23:02:03.792Z,15.50
2019-03-08T23:04:31.214Z,14.27
2019-03-08T23:06:58.664Z,12.93
2019-03-08T23:09:26.154Z,14.33
2019-03-08T23:11:53.788Z,12.67
2019-03-08T23:14:21.286Z,12.87
2019-03-08T23:16:48.780Z,11.97
2019-03-08T23:19:16.176Z,14.80
2019-03-08T23:21:44.980Z,11.47
2019-03-08T23:24:12.400Z,14.00
2019-03-08T23:26:41.460Z,16.77
2019-03-08T23:29:10.485Z,15.90
2019-03-08T23:31:39.574Z,17.37
2019-03-08T23:34:06.954Z,19.33
2019-03-08T23:36:34.359Z,17.37
2019-03-08T23:39:02.028Z,14.73
2019-03-08T23:41:29.428Z,18.60
2019-03-08T23:43:56.910Z,17.27
2019-03-08T23:46:24.328Z,21.17
2019-03-08T23:48:51.713Z,21.57
2019-03-08T23:51:19.238Z,19.63
2019-03-08T23:53:47.107Z,23.83
2019-03-08T23:56:14.679Z,19.93
2019-03-08T23:58:42.169Z,20.13
